sensor_id;sensor_type;location;lat;lon;timestamp;P1;durP1;ratioP1;P2;durP2;ratioP2
59922;SDS011;45778;51.142;3.732;2023-09-18T00:02:00;26.13;;;17.70;;
59922;SDS011;45778;51.142;3.732;2023-09-18T00:04:26;26.65;;;15.50;;
59922;SDS011;45778;51.142;3.732;2023-09-18T00:06:52;18.05;;;12.60;;
59922;SDS011;45778;51.142;3.732;2023-09-18T00:09:17;13.85;;;10.80;;
59922;SDS011;45778;51.142;3.732;2023-09-18T00:11:43;10.75;;;8.38;;
59922;SDS011;45778;51.142;3.732;2023-09-18T00:14:09;9.02;;;7.88;;
59922;SDS011;45778;51.142;3.732;2023-09-18T00:16:34;10.85;;;8.15;;
59922;SDS011;45778;51.142;3.732;2023-09-18T00:19:00;13.02;;;7.72;;
59922;SDS011;45778;51.142;3.732;2023-09-18T00:21:27;8.63;;;7.45;;
59922;SDS011;45778;51.142;3.732;2023-09-18T00:23:55;9.98;;;7.85;;
59922;SDS011;45778;51.142;3.732;2023-09-18T00:26:23;10.10;;;6.47;;
59922;SDS011;45778;51.142;3.732;2023-09-18T00:28:49;9.77;;;6.85;;
59922;SDS011;45778;51.142;3.732;2023-09-18T00:31:14;12.00;;;6.38;;
59922;SDS011;45778;51.142;3.732;2023-09-18T00:33:40;6.63;;;5.90;;
59922;SDS011;45778;51.142;3.732;2023-09-18T00:36:06;8.32;;;6.13;;
59922;SDS011;45778;51.142;3.732;2023-09-18T00:38:31;7.10;;;5.88;;
59922;SDS011;45778;51.142;3.732;2023-09-18T00:40:57;8.15;;;5.43;;
59922;SDS011;45778;51.142;3.732;2023-09-18T00:43:23;8.50;;;5.28;;
59922;SDS011;45778;51.142;3.732;2023-09-18T00:45:48;5.85;;;5.20;;
59922;SDS011;45778;51.142;3.732;2023-09-18T00:48:15;8.07;;;6.25;;
59922;SDS011;45778;51.142;3.732;2023-09-18T00:50:41;5.80;;;5.15;;
59922;SDS011;45778;51.142;3.732;2023-09-18T00:53:09;9.45;;;5.95;;
59922;SDS011;45778;51.142;3.732;2023-09-18T00:55:38;7.78;;;6.57;;
59922;SDS011;45778;51.142;3.732;2023-09-18T00:58:04;8.50;;;6.28;;
59922;SDS011;45778;51.142;3.732;2023-09-18T01:00:31;9.90;;;5.95;;
59922;SDS011;45778;51.142;3.732;2023-09-18T01:02:56;7.65;;;6.32;;
59922;SDS011;45778;51.142;3.732;2023-09-18T01:05:22;9.48;;;7.20;;
59922;SDS011;45778;51.142;3.732;2023-09-18T01:07:48;9.63;;;6.32;;
59922;SDS011;45778;51.142;3.732;2023-09-18T01:10:14;8.50;;;5.60;;
59922;SDS011;45778;51.142;3.732;2023-09-18T01:12:46;11.35;;;6.80;;
59922;SDS011;45778;51.142;3.732;2023-09-18T01:17:48;11.77;;;6.18;;
59922;SDS011;45778;51.142;3.732;2023-09-18T01:20:14;8.00;;;5.97;;
59922;SDS011;45778;51.142;3.732;2023-09-18T01:22:40;9.85;;;7.05;;
59922;SDS011;45778;51.142;3.732;2023-09-18T01:25:06;9.73;;;6.72;;
59922;SDS011;45778;51.142;3.732;2023-09-18T01:27:32;10.30;;;6.47;;
59922;SDS011;45778;51.142;3.732;2023-09-18T01:29:58;8.52;;;6.55;;
59922;SDS011;45778;51.142;3.732;2023-09-18T01:32:25;9.40;;;6.82;;
59922;SDS011;45778;51.142;3.732;2023-09-18T01:34:55;9.50;;;7.28;;
59922;SDS011;45778;51.142;3.732;2023-09-18T01:37:23;11.02;;;7.80;;
59922;SDS011;45778;51.142;3.732;2023-09-18T01:39:51;11.05;;;6.68;;
59922;SDS011;45778;51.142;3.732;2023-09-18T01:42:18;10.02;;;7.80;;
59922;SDS011;45778;51.142;3.732;2023-09-18T01:44:46;11.73;;;8.23;;
59922;SDS011;45778;51.142;3.732;2023-09-18T01:47:14;10.88;;;7.88;;
59922;SDS011;45778;51.142;3.732;2023-09-18T01:49:41;11.38;;;8.07;;
59922;SDS011;45778;51.142;3.732;2023-09-18T01:52:08;12.70;;;8.77;;
59922;SDS011;45778;51.142;3.732;2023-09-18T01:54:34;11.98;;;8.75;;
59922;SDS011;45778;51.142;3.732;2023-09-18T01:57:00;11.82;;;8.93;;
59922;SDS011;45778;51.142;3.732;2023-09-18T01:59:27;12.13;;;8.80;;
59922;SDS011;45778;51.142;3.732;2023-09-18T02:01:53;15.05;;;10.55;;
59922;SDS011;45778;51.142;3.732;2023-09-18T02:04:19;14.52;;;9.73;;
59922;SDS011;45778;51.142;3.732;2023-09-18T02:06:46;15.70;;;9.82;;
59922;SDS011;45778;51.142;3.732;2023-09-18T02:09:13;15.60;;;10.43;;
59922;SDS011;45778;51.142;3.732;2023-09-18T02:11:39;12.48;;;9.15;;
59922;SDS011;45778;51.142;3.732;2023-09-18T02:14:06;16.30;;;9.50;;
59922;SDS011;45778;51.142;3.732;2023-09-18T02:16:34;14.57;;;8.70;;
59922;SDS011;45778;51.142;3.732;2023-09-18T02:19:02;11.50;;;9.18;;
59922;SDS011;45778;51.142;3.732;2023-09-18T02:21:29;10.65;;;8.70;;
59922;SDS011;45778;51.142;3.732;2023-09-18T02:23:55;11.27;;;8.18;;
59922;SDS011;45778;51.142;3.732;2023-09-18T02:26:21;13.05;;;8.57;;
59922;SDS011;45778;51.142;3.732;2023-09-18T02:28:48;11.38;;;8.30;;
59922;SDS011;45778;51.142;3.732;2023-09-18T02:31:14;10.43;;;8.52;;
59922;SDS011;45778;51.142;3.732;2023-09-18T02:33:40;10.98;;;7.95;;
59922;SDS011;45778;51.142;3.732;2023-09-18T02:36:06;10.88;;;7.45;;
59922;SDS011;45778;51.142;3.732;2023-09-18T02:38:35;13.48;;;8.75;;
59922;SDS011;45778;51.142;3.732;2023-09-18T02:41:01;18.75;;;16.50;;
59922;SDS011;45778;51.142;3.732;2023-09-18T02:43:27;18.95;;;15.65;;
59922;SDS011;45778;51.142;3.732;2023-09-18T02:45:52;17.30;;;11.60;;
59922;SDS011;45778;51.142;3.732;2023-09-18T02:48:18;11.50;;;9.48;;
59922;SDS011;45778;51.142;3.732;2023-09-18T02:50:44;11.57;;;7.47;;
59922;SDS011;45778;51.142;3.732;2023-09-18T02:53:20;13.57;;;7.68;;
59922;SDS011;45778;51.142;3.732;2023-09-18T02:55:49;10.52;;;7.00;;
59922;SDS011;45778;51.142;3.732;2023-09-18T02:58:15;8.27;;;6.70;;
59922;SDS011;45778;51.142;3.732;2023-09-18T03:00:41;8.80;;;6.45;;
59922;SDS011;45778;51.142;3.732;2023-09-18T03:03:08;8.68;;;6.72;;
59922;SDS011;45778;51.142;3.732;2023-09-18T03:05:35;7.43;;;6.40;;
59922;SDS011;45778;51.142;3.732;2023-09-18T03:08:01;10.95;;;6.13;;
59922;SDS011;45778;51.142;3.732;2023-09-18T03:10:27;8.48;;;5.60;;
59922;SDS011;45778;51.142;3.732;2023-09-18T03:12:53;9.55;;;5.97;;
59922;SDS011;45778;51.142;3.732;2023-09-18T03:15:18;8.68;;;5.28;;
59922;SDS011;45778;51.142;3.732;2023-09-18T03:17:44;8.30;;;5.15;;
59922;SDS011;45778;51.142;3.732;2023-09-18T03:20:10;6.72;;;4.80;;
59922;SDS011;45778;51.142;3.732;2023-09-18T03:22:36;7.70;;;5.20;;
59922;SDS011;45778;51.142;3.732;2023-09-18T03:25:01;6.53;;;4.60;;
59922;SDS011;45778;51.142;3.732;2023-09-18T03:27:27;6.63;;;4.38;;
59922;SDS011;45778;51.142;3.732;2023-09-18T03:29:54;7.40;;;5.68;;
59922;SDS011;45778;51.142;3.732;2023-09-18T03:32:20;7.68;;;5.03;;
59922;SDS011;45778;51.142;3.732;2023-09-18T03:34:46;8.10;;;5.50;;
59922;SDS011;45778;51.142;3.732;2023-09-18T03:37:12;8.20;;;5.38;;
59922;SDS011;45778;51.142;3.732;2023-09-18T03:39:37;10.32;;;5.78;;
59922;SDS011;45778;51.142;3.732;2023-09-18T03:42:03;9.10;;;5.63;;
59922;SDS011;45778;51.142;3.732;2023-09-18T03:44:29;7.07;;;5.40;;
59922;SDS011;45778;51.142;3.732;2023-09-18T03:46:54;7.80;;;5.88;;
59922;SDS011;45778;51.142;3.732;2023-09-18T03:49:20;8.48;;;5.40;;
59922;SDS011;45778;51.142;3.732;2023-09-18T03:51:45;6.40;;;4.50;;
59922;SDS011;45778;51.142;3.732;2023-09-18T03:54:11;7.85;;;4.50;;
59922;SDS011;45778;51.142;3.732;2023-09-18T03:56:37;8.85;;;4.53;;
59922;SDS011;45778;51.142;3.732;2023-09-18T03:59:02;8.15;;;4.20;;
59922;SDS011;45778;51.142;3.732;2023-09-18T04:01:29;6.90;;;4.82;;
59922;SDS011;45778;51.142;3.732;2023-09-18T04:03:55;8.10;;;4.68;;
59922;SDS011;45778;51.142;3.732;2023-09-18T04:06:21;9.48;;;4.93;;
59922;SDS011;45778;51.142;3.732;2023-09-18T04:08:49;5.30;;;4.28;;
59922;SDS011;45778;51.142;3.732;2023-09-18T04:11:16;6.10;;;4.43;;
59922;SDS011;45778;51.142;3.732;2023-09-18T04:13:42;8.18;;;4.88;;
59922;SDS011;45778;51.142;3.732;2023-09-18T04:16:07;8.02;;;3.95;;
59922;SDS011;45778;51.142;3.732;2023-09-18T04:18:33;7.28;;;4.30;;
59922;SDS011;45778;51.142;3.732;2023-09-18T04:20:58;7.15;;;4.65;;
59922;SDS011;45778;51.142;3.732;2023-09-18T04:23:25;10.45;;;4.95;;
59922;SDS011;45778;51.142;3.732;2023-09-18T04:25:53;6.75;;;4.60;;
59922;SDS011;45778;51.142;3.732;2023-09-18T04:28:20;5.82;;;4.53;;
59922;SDS011;45778;51.142;3.732;2023-09-18T04:30:47;6.15;;;4.05;;
59922;SDS011;45778;51.142;3.732;2023-09-18T04:33:13;8.50;;;4.47;;
59922;SDS011;45778;51.142;3.732;2023-09-18T04:35:40;6.82;;;4.70;;
59922;SDS011;45778;51.142;3.732;2023-09-18T04:38:06;5.28;;;3.80;;
59922;SDS011;45778;51.142;3.732;2023-09-18T04:40:33;6.30;;;3.67;;
59922;SDS011;45778;51.142;3.732;2023-09-18T04:43:00;5.03;;;3.10;;
59922;SDS011;45778;51.142;3.732;2023-09-18T04:45:26;4.85;;;2.60;;
59922;SDS011;45778;51.142;3.732;2023-09-18T04:47:52;4.90;;;3.30;;
59922;SDS011;45778;51.142;3.732;2023-09-18T04:50:18;5.10;;;2.67;;
59922;SDS011;45778;51.142;3.732;2023-09-18T04:52:44;8.75;;;3.17;;
59922;SDS011;45778;51.142;3.732;2023-09-18T04:55:10;5.55;;;2.88;;
59922;SDS011;45778;51.142;3.732;2023-09-18T04:57:36;5.82;;;2.80;;
59922;SDS011;45778;51.142;3.732;2023-09-18T05:00:03;4.93;;;2.20;;
59922;SDS011;45778;51.142;3.732;2023-09-18T05:02:33;4.80;;;2.67;;
59922;SDS011;45778;51.142;3.732;2023-09-18T05:04:59;4.32;;;2.50;;
59922;SDS011;45778;51.142;3.732;2023-09-18T05:07:25;4.80;;;2.75;;
59922;SDS011;45778;51.142;3.732;2023-09-18T05:09:51;5.00;;;2.42;;
59922;SDS011;45778;51.142;3.732;2023-09-18T05:12:17;6.15;;;2.50;;
59922;SDS011;45778;51.142;3.732;2023-09-18T05:14:43;4.40;;;2.42;;
59922;SDS011;45778;51.142;3.732;2023-09-18T05:17:10;3.75;;;1.95;;
59922;SDS011;45778;51.142;3.732;2023-09-18T05:19:39;5.25;;;2.42;;
59922;SDS011;45778;51.142;3.732;2023-09-18T05:22:05;5.65;;;2.83;;
59922;SDS011;45778;51.142;3.732;2023-09-18T05:24:31;4.88;;;2.05;;
59922;SDS011;45778;51.142;3.732;2023-09-18T05:26:56;2.90;;;2.25;;
59922;SDS011;45778;51.142;3.732;2023-09-18T05:29:22;5.35;;;2.30;;
59922;SDS011;45778;51.142;3.732;2023-09-18T05:31:47;3.53;;;2.30;;
59922;SDS011;45778;51.142;3.732;2023-09-18T05:34:13;4.25;;;2.15;;
59922;SDS011;45778;51.142;3.732;2023-09-18T05:36:39;5.45;;;2.33;;
59922;SDS011;45778;51.142;3.732;2023-09-18T05:39:05;4.75;;;2.15;;
59922;SDS011;45778;51.142;3.732;2023-09-18T05:41:36;4.05;;;1.80;;
59922;SDS011;45778;51.142;3.732;2023-09-18T05:44:02;3.08;;;1.80;;
59922;SDS011;45778;51.142;3.732;2023-09-18T05:46:30;5.47;;;2.67;;
59922;SDS011;45778;51.142;3.732;2023-09-18T05:48:56;6.38;;;2.15;;
59922;SDS011;45778;51.142;3.732;2023-09-18T05:51:22;4.10;;;2.15;;
59922;SDS011;45778;51.142;3.732;2023-09-18T05:53:48;3.85;;;2.33;;
59922;SDS011;45778;51.142;3.732;2023-09-18T05:56:14;3.40;;;2.20;;
59922;SDS011;45778;51.142;3.732;2023-09-18T05:58:42;3.15;;;2.30;;
59922;SDS011;45778;51.142;3.732;2023-09-18T06:01:08;6.25;;;2.03;;
59922;SDS011;45778;51.142;3.732;2023-09-18T06:03:34;8.35;;;3.47;;
59922;SDS011;45778;51.142;3.732;2023-09-18T06:06:02;6.15;;;2.65;;
59922;SDS011;45778;51.142;3.732;2023-09-18T06:08:29;3.10;;;2.38;;
59922;SDS011;45778;51.142;3.732;2023-09-18T06:10:55;3.92;;;1.85;;
59922;SDS011;45778;51.142;3.732;2023-09-18T06:13:21;3.95;;;2.40;;
59922;SDS011;45778;51.142;3.732;2023-09-18T06:15:48;4.03;;;2.45;;
59922;SDS011;45778;51.142;3.732;2023-09-18T06:18:15;5.00;;;2.10;;
59922;SDS011;45778;51.142;3.732;2023-09-18T06:20:41;4.78;;;2.03;;
59922;SDS011;45778;51.142;3.732;2023-09-18T06:23:08;4.35;;;2.00;;
59922;SDS011;45778;51.142;3.732;2023-09-18T06:25:34;6.28;;;1.95;;
59922;SDS011;45778;51.142;3.732;2023-09-18T06:28:00;4.47;;;2.45;;
59922;SDS011;45778;51.142;3.732;2023-09-18T06:30:28;8.05;;;2.95;;
59922;SDS011;45778;51.142;3.732;2023-09-18T06:32:56;6.18;;;2.13;;
59922;SDS011;45778;51.142;3.732;2023-09-18T06:35:21;2.83;;;2.13;;
59922;SDS011;45778;51.142;3.732;2023-09-18T06:37:47;4.30;;;2.80;;
59922;SDS011;45778;51.142;3.732;2023-09-18T06:40:13;4.97;;;2.05;;
59922;SDS011;45778;51.142;3.732;2023-09-18T06:42:39;4.72;;;2.08;;
59922;SDS011;45778;51.142;3.732;2023-09-18T06:45:05;4.57;;;2.67;;
59922;SDS011;45778;51.142;3.732;2023-09-18T06:47:34;9.57;;;2.67;;
59922;SDS011;45778;51.142;3.732;2023-09-18T06:50:00;3.05;;;2.03;;
59922;SDS011;45778;51.142;3.732;2023-09-18T06:52:26;3.80;;;2.08;;
59922;SDS011;45778;51.142;3.732;2023-09-18T06:54:53;7.55;;;2.45;;
59922;SDS011;45778;51.142;3.732;2023-09-18T06:57:18;5.47;;;2.30;;
59922;SDS011;45778;51.142;3.732;2023-09-18T06:59:46;4.13;;;2.28;;
59922;SDS011;45778;51.142;3.732;2023-09-18T07:02:12;4.13;;;2.33;;
59922;SDS011;45778;51.142;3.732;2023-09-18T07:04:39;3.60;;;2.47;;
59922;SDS011;45778;51.142;3.732;2023-09-18T07:07:10;5.28;;;2.50;;
59922;SDS011;45778;51.142;3.732;2023-09-18T07:09:39;3.83;;;2.28;;
59922;SDS011;45778;51.142;3.732;2023-09-18T07:12:06;4.13;;;2.33;;
59922;SDS011;45778;51.142;3.732;2023-09-18T07:14:32;4.70;;;2.38;;
59922;SDS011;45778;51.142;3.732;2023-09-18T07:16:58;11.90;;;3.40;;
59922;SDS011;45778;51.142;3.732;2023-09-18T07:19:25;4.57;;;2.20;;
59922;SDS011;45778;51.142;3.732;2023-09-18T07:21:51;4.00;;;2.20;;
59922;SDS011;45778;51.142;3.732;2023-09-18T07:24:17;5.30;;;2.58;;
59922;SDS011;45778;51.142;3.732;2023-09-18T07:26:43;6.15;;;2.60;;
59922;SDS011;45778;51.142;3.732;2023-09-18T07:29:10;5.60;;;2.80;;
59922;SDS011;45778;51.142;3.732;2023-09-18T07:31:36;2.55;;;2.08;;
59922;SDS011;45778;51.142;3.732;2023-09-18T07:34:02;7.30;;;4.72;;
59922;SDS011;45778;51.142;3.732;2023-09-18T07:36:29;7.32;;;2.80;;
59922;SDS011;45778;51.142;3.732;2023-09-18T07:38:55;6.07;;;3.10;;
59922;SDS011;45778;51.142;3.732;2023-09-18T07:41:21;4.40;;;2.80;;
59922;SDS011;45778;51.142;3.732;2023-09-18T07:43:47;10.02;;;2.83;;
59922;SDS011;45778;51.142;3.732;2023-09-18T07:46:13;5.07;;;3.08;;
59922;SDS011;45778;51.142;3.732;2023-09-18T07:48:39;5.75;;;3.08;;
59922;SDS011;45778;51.142;3.732;2023-09-18T07:51:04;5.78;;;3.50;;
59922;SDS011;45778;51.142;3.732;2023-09-18T07:53:30;4.68;;;3.15;;
59922;SDS011;45778;51.142;3.732;2023-09-18T07:55:57;7.03;;;2.88;;
59922;SDS011;45778;51.142;3.732;2023-09-18T07:58:24;7.47;;;3.08;;
59922;SDS011;45778;51.142;3.732;2023-09-18T08:00:53;4.22;;;2.80;;
59922;SDS011;45778;51.142;3.732;2023-09-18T08:03:20;4.05;;;2.85;;
59922;SDS011;45778;51.142;3.732;2023-09-18T08:05:49;6.05;;;2.80;;
59922;SDS011;45778;51.142;3.732;2023-09-18T08:08:16;6.78;;;2.80;;
59922;SDS011;45778;51.142;3.732;2023-09-18T08:10:42;5.03;;;2.55;;
59922;SDS011;45778;51.142;3.732;2023-09-18T08:13:08;4.00;;;2.58;;
59922;SDS011;45778;51.142;3.732;2023-09-18T08:15:34;4.97;;;2.90;;
59922;SDS011;45778;51.142;3.732;2023-09-18T08:17:59;5.97;;;2.90;;
59922;SDS011;45778;51.142;3.732;2023-09-18T08:20:26;6.05;;;3.00;;
59922;SDS011;45778;51.142;3.732;2023-09-18T08:22:53;8.73;;;3.33;;
59922;SDS011;45778;51.142;3.732;2023-09-18T08:25:18;9.30;;;3.20;;
59922;SDS011;45778;51.142;3.732;2023-09-18T08:27:44;5.25;;;3.55;;
59922;SDS011;45778;51.142;3.732;2023-09-18T08:30:10;4.72;;;3.05;;
59922;SDS011;45778;51.142;3.732;2023-09-18T08:32:38;5.30;;;3.13;;
59922;SDS011;45778;51.142;3.732;2023-09-18T08:35:04;8.45;;;4.05;;
59922;SDS011;45778;51.142;3.732;2023-09-18T08:37:31;5.75;;;3.65;;
59922;SDS011;45778;51.142;3.732;2023-09-18T08:39:57;6.03;;;3.58;;
59922;SDS011;45778;51.142;3.732;2023-09-18T08:42:25;6.97;;;3.55;;
59922;SDS011;45778;51.142;3.732;2023-09-18T08:44:54;5.75;;;3.58;;
59922;SDS011;45778;51.142;3.732;2023-09-18T08:47:23;5.10;;;3.33;;
59922;SDS011;45778;51.142;3.732;2023-09-18T08:49:49;6.43;;;3.40;;
59922;SDS011;45778;51.142;3.732;2023-09-18T08:52:17;3.95;;;3.33;;
59922;SDS011;45778;51.142;3.732;2023-09-18T08:54:43;5.70;;;3.20;;
59922;SDS011;45778;51.142;3.732;2023-09-18T08:57:10;5.25;;;3.35;;
59922;SDS011;45778;51.142;3.732;2023-09-18T08:59:37;4.22;;;2.58;;
59922;SDS011;45778;51.142;3.732;2023-09-18T09:02:04;9.00;;;3.75;;
59922;SDS011;45778;51.142;3.732;2023-09-18T09:04:30;4.40;;;2.78;;
59922;SDS011;45778;51.142;3.732;2023-09-18T09:06:56;4.80;;;2.45;;
59922;SDS011;45778;51.142;3.732;2023-09-18T09:09:24;2.38;;;2.03;;
59922;SDS011;45778;51.142;3.732;2023-09-18T09:11:51;5.43;;;2.30;;
59922;SDS011;45778;51.142;3.732;2023-09-18T09:14:17;5.60;;;2.40;;
59922;SDS011;45778;51.142;3.732;2023-09-18T09:16:49;3.28;;;1.80;;
59922;SDS011;45778;51.142;3.732;2023-09-18T09:19:16;4.63;;;2.28;;
59922;SDS011;45778;51.142;3.732;2023-09-18T09:21:43;4.40;;;2.22;;
59922;SDS011;45778;51.142;3.732;2023-09-18T09:24:12;4.55;;;1.95;;
59922;SDS011;45778;51.142;3.732;2023-09-18T09:26:39;3.83;;;2.00;;
59922;SDS011;45778;51.142;3.732;2023-09-18T09:29:18;5.45;;;2.30;;
59922;SDS011;45778;51.142;3.732;2023-09-18T09:31:46;5.93;;;2.22;;
59922;SDS011;45778;51.142;3.732;2023-09-18T09:34:12;4.25;;;2.03;;
59922;SDS011;45778;51.142;3.732;2023-09-18T09:36:55;6.05;;;2.00;;
59922;SDS011;45778;51.142;3.732;2023-09-18T09:39:21;6.32;;;2.08;;
59922;SDS011;45778;51.142;3.732;2023-09-18T09:41:50;7.55;;;2.13;;
59922;SDS011;45778;51.142;3.732;2023-09-18T09:44:17;4.82;;;1.65;;
59922;SDS011;45778;51.142;3.732;2023-09-18T09:46:47;2.88;;;2.17;;
59922;SDS011;45778;51.142;3.732;2023-09-18T09:49:14;3.85;;;1.77;;
59922;SDS011;45778;51.142;3.732;2023-09-18T09:51:40;2.58;;;1.95;;
59922;SDS011;45778;51.142;3.732;2023-09-18T09:54:07;5.78;;;2.45;;
59922;SDS011;45778;51.142;3.732;2023-09-18T09:56:40;4.80;;;2.25;;
59922;SDS011;45778;51.142;3.732;2023-09-18T09:59:14;6.10;;;2.75;;
59922;SDS011;45778;51.142;3.732;2023-09-18T10:01:40;3.85;;;2.10;;
59922;SDS011;45778;51.142;3.732;2023-09-18T10:04:13;5.05;;;2.53;;
59922;SDS011;45778;51.142;3.732;2023-09-18T10:06:43;6.50;;;3.10;;
59922;SDS011;45778;51.142;3.732;2023-09-18T10:09:12;5.18;;;2.60;;
59922;SDS011;45778;51.142;3.732;2023-09-18T10:11:41;5.60;;;2.83;;
59922;SDS011;45778;51.142;3.732;2023-09-18T10:16:41;5.95;;;2.65;;
59922;SDS011;45778;51.142;3.732;2023-09-18T10:24:54;4.70;;;2.40;;
59922;SDS011;45778;51.142;3.732;2023-09-18T10:27:29;6.72;;;3.17;;
59922;SDS011;45778;51.142;3.732;2023-09-18T10:29:58;3.15;;;2.42;;
59922;SDS011;45778;51.142;3.732;2023-09-18T10:32:29;3.75;;;2.20;;
59922;SDS011;45778;51.142;3.732;2023-09-18T10:34:57;3.80;;;2.13;;
59922;SDS011;45778;51.142;3.732;2023-09-18T10:37:25;5.80;;;2.53;;
59922;SDS011;45778;51.142;3.732;2023-09-18T10:39:52;3.10;;;2.30;;
59922;SDS011;45778;51.142;3.732;2023-09-18T10:42:19;3.40;;;2.00;;
59922;SDS011;45778;51.142;3.732;2023-09-18T10:44:47;4.50;;;2.65;;
59922;SDS011;45778;51.142;3.732;2023-09-18T10:47:14;5.28;;;2.38;;
59922;SDS011;45778;51.142;3.732;2023-09-18T10:49:40;3.10;;;2.17;;
59922;SDS011;45778;51.142;3.732;2023-09-18T10:52:10;5.03;;;2.88;;
59922;SDS011;45778;51.142;3.732;2023-09-18T10:54:37;4.78;;;2.30;;
59922;SDS011;45778;51.142;3.732;2023-09-18T10:57:04;2.28;;;1.83;;
59922;SDS011;45778;51.142;3.732;2023-09-18T10:59:30;3.08;;;2.20;;
59922;SDS011;45778;51.142;3.732;2023-09-18T11:01:56;4.85;;;2.45;;
59922;SDS011;45778;51.142;3.732;2023-09-18T11:04:30;3.53;;;2.20;;
59922;SDS011;45778;51.142;3.732;2023-09-18T11:09:30;5.40;;;2.17;;
59922;SDS011;45778;51.142;3.732;2023-09-18T11:12:05;6.07;;;2.03;;
59922;SDS011;45778;51.142;3.732;2023-09-18T11:23:10;3.33;;;2.10;;
59922;SDS011;45778;51.142;3.732;2023-09-18T11:25:43;3.90;;;1.75;;
59922;SDS011;45778;51.142;3.732;2023-09-18T11:30:50;6.25;;;2.88;;
59922;SDS011;45778;51.142;3.732;2023-09-18T11:33:31;3.55;;;1.60;;
59922;SDS011;45778;51.142;3.732;2023-09-18T11:36:11;5.93;;;1.85;;
59922;SDS011;45778;51.142;3.732;2023-09-18T11:38:58;4.35;;;2.00;;
59922;SDS011;45778;51.142;3.732;2023-09-18T11:41:38;5.97;;;1.70;;
59922;SDS011;45778;51.142;3.732;2023-09-18T11:46:39;4.25;;;1.77;;
59922;SDS011;45778;51.142;3.732;2023-09-18T11:49:13;3.05;;;1.70;;
59922;SDS011;45778;51.142;3.732;2023-09-18T11:51:39;2.47;;;1.83;;
59922;SDS011;45778;51.142;3.732;2023-09-18T11:54:07;11.88;;;2.38;;
59922;SDS011;45778;51.142;3.732;2023-09-18T11:56:33;4.72;;;1.38;;
59922;SDS011;45778;51.142;3.732;2023-09-18T11:58:59;6.78;;;1.35;;
59922;SDS011;45778;51.142;3.732;2023-09-18T12:01:29;2.55;;;1.30;;
59922;SDS011;45778;51.142;3.732;2023-09-18T12:04:03;3.70;;;1.65;;
59922;SDS011;45778;51.142;3.732;2023-09-18T12:06:38;4.22;;;1.60;;
59922;SDS011;45778;51.142;3.732;2023-09-18T12:09:05;5.15;;;1.40;;
59922;SDS011;45778;51.142;3.732;2023-09-18T12:11:32;2.90;;;1.30;;
59922;SDS011;45778;51.142;3.732;2023-09-18T12:14:04;3.45;;;1.10;;
59922;SDS011;45778;51.142;3.732;2023-09-18T12:16:30;3.13;;;1.25;;
59922;SDS011;45778;51.142;3.732;2023-09-18T12:18:56;3.92;;;1.30;;
59922;SDS011;45778;51.142;3.732;2023-09-18T12:21:22;2.28;;;1.30;;
59922;SDS011;45778;51.142;3.732;2023-09-18T12:23:48;3.42;;;1.23;;
59922;SDS011;45778;51.142;3.732;2023-09-18T12:26:15;1.80;;;1.30;;
59922;SDS011;45778;51.142;3.732;2023-09-18T12:28:43;2.15;;;1.10;;
59922;SDS011;45778;51.142;3.732;2023-09-18T12:31:10;2.63;;;1.17;;
59922;SDS011;45778;51.142;3.732;2023-09-18T12:33:40;2.95;;;1.42;;
59922;SDS011;45778;51.142;3.732;2023-09-18T12:36:09;3.58;;;1.35;;
59922;SDS011;45778;51.142;3.732;2023-09-18T12:38:35;4.18;;;1.20;;
59922;SDS011;45778;51.142;3.732;2023-09-18T12:41:02;3.80;;;1.40;;
59922;SDS011;45778;51.142;3.732;2023-09-18T12:43:33;2.97;;;1.33;;
59922;SDS011;45778;51.142;3.732;2023-09-18T12:46:07;3.90;;;1.10;;
59922;SDS011;45778;51.142;3.732;2023-09-18T12:48:37;5.72;;;1.42;;
59922;SDS011;45778;51.142;3.732;2023-09-18T12:51:05;5.38;;;1.60;;
59922;SDS011;45778;51.142;3.732;2023-09-18T12:53:31;3.10;;;1.42;;
59922;SDS011;45778;51.142;3.732;2023-09-18T12:56:04;3.38;;;1.42;;
59922;SDS011;45778;51.142;3.732;2023-09-18T12:58:41;2.13;;;1.27;;
59922;SDS011;45778;51.142;3.732;2023-09-18T13:01:08;2.58;;;1.40;;
59922;SDS011;45778;51.142;3.732;2023-09-18T13:03:42;5.20;;;1.55;;
59922;SDS011;45778;51.142;3.732;2023-09-18T13:06:09;8.30;;;1.50;;
59922;SDS011;45778;51.142;3.732;2023-09-18T13:08:36;1.30;;;0.85;;
59922;SDS011;45778;51.142;3.732;2023-09-18T13:11:02;2.40;;;1.20;;
59922;SDS011;45778;51.142;3.732;2023-09-18T13:13:28;3.95;;;1.60;;
59922;SDS011;45778;51.142;3.732;2023-09-18T13:15:57;2.60;;;1.00;;
59922;SDS011;45778;51.142;3.732;2023-09-18T13:18:24;1.83;;;1.35;;
59922;SDS011;45778;51.142;3.732;2023-09-18T13:20:51;7.93;;;2.00;;
59922;SDS011;45778;51.142;3.732;2023-09-18T13:23:17;0.00;;;0.00;;
59922;SDS011;45778;51.142;3.732;2023-09-18T13:25:43;0.00;;;0.00;;
59922;SDS011;45778;51.142;3.732;2023-09-18T13:28:11;0.05;;;0.05;;
59922;SDS011;45778;51.142;3.732;2023-09-18T13:30:39;0.08;;;0.08;;
59922;SDS011;45778;51.142;3.732;2023-09-18T13:33:09;0.00;;;0.00;;
59922;SDS011;45778;51.142;3.732;2023-09-18T13:35:40;0.38;;;0.38;;
59922;SDS011;45778;51.142;3.732;2023-09-18T13:38:07;0.00;;;0.00;;
59922;SDS011;45778;51.142;3.732;2023-09-18T13:40:37;0.00;;;0.00;;
59922;SDS011;45778;51.142;3.732;2023-09-18T13:43:07;1.65;;;1.35;;
59922;SDS011;45778;51.142;3.732;2023-09-18T13:45:34;0.00;;;0.00;;
59922;SDS011;45778;51.142;3.732;2023-09-18T13:48:00;4.30;;;0.32;;
59922;SDS011;45778;51.142;3.732;2023-09-18T13:50:27;0.00;;;0.00;;
59922;SDS011;45778;51.142;3.732;2023-09-18T13:52:52;0.00;;;0.00;;
59922;SDS011;45778;51.142;3.732;2023-09-18T13:55:19;0.00;;;0.00;;
59922;SDS011;45778;51.142;3.732;2023-09-18T13:57:44;0.05;;;0.05;;
59922;SDS011;45778;51.142;3.732;2023-09-18T14:00:11;0.00;;;0.00;;
59922;SDS011;45778;51.142;3.732;2023-09-18T14:02:39;0.00;;;0.00;;
59922;SDS011;45778;51.142;3.732;2023-09-18T14:05:05;0.00;;;0.00;;
59922;SDS011;45778;51.142;3.732;2023-09-18T14:07:32;0.05;;;0.05;;
59922;SDS011;45778;51.142;3.732;2023-09-18T14:09:57;0.00;;;0.00;;
59922;SDS011;45778;51.142;3.732;2023-09-18T14:12:23;0.00;;;0.00;;
59922;SDS011;45778;51.142;3.732;2023-09-18T14:14:49;0.00;;;0.00;;
59922;SDS011;45778;51.142;3.732;2023-09-18T14:17:16;0.20;;;0.20;;
59922;SDS011;45778;51.142;3.732;2023-09-18T14:19:43;0.00;;;0.00;;
59922;SDS011;45778;51.142;3.732;2023-09-18T14:22:09;0.00;;;0.00;;
59922;SDS011;45778;51.142;3.732;2023-09-18T14:24:35;0.00;;;0.00;;
59922;SDS011;45778;51.142;3.732;2023-09-18T14:27:01;2.60;;;1.13;;
59922;SDS011;45778;51.142;3.732;2023-09-18T14:29:27;0.00;;;0.00;;
59922;SDS011;45778;51.142;3.732;2023-09-18T14:31:55;0.70;;;0.68;;
59922;SDS011;45778;51.142;3.732;2023-09-18T14:34:22;0.00;;;0.00;;
59922;SDS011;45778;51.142;3.732;2023-09-18T14:36:47;0.08;;;0.00;;
59922;SDS011;45778;51.142;3.732;2023-09-18T14:39:13;0.00;;;0.00;;
59922;SDS011;45778;51.142;3.732;2023-09-18T14:41:40;0.15;;;0.15;;
59922;SDS011;45778;51.142;3.732;2023-09-18T14:44:09;0.00;;;0.00;;
59922;SDS011;45778;51.142;3.732;2023-09-18T14:46:35;0.00;;;0.00;;
59922;SDS011;45778;51.142;3.732;2023-09-18T14:49:05;0.00;;;0.00;;
59922;SDS011;45778;51.142;3.732;2023-09-18T14:51:32;0.55;;;0.55;;
59922;SDS011;45778;51.142;3.732;2023-09-18T14:53:59;0.00;;;0.00;;
59922;SDS011;45778;51.142;3.732;2023-09-18T14:56:25;0.10;;;0.10;;
59922;SDS011;45778;51.142;3.732;2023-09-18T14:58:52;0.00;;;0.00;;
59922;SDS011;45778;51.142;3.732;2023-09-18T15:01:18;0.00;;;0.00;;
59922;SDS011;45778;51.142;3.732;2023-09-18T15:03:45;0.00;;;0.00;;
59922;SDS011;45778;51.142;3.732;2023-09-18T15:06:11;0.30;;;0.30;;
59922;SDS011;45778;51.142;3.732;2023-09-18T15:08:37;0.00;;;0.00;;
59922;SDS011;45778;51.142;3.732;2023-09-18T15:11:03;0.20;;;0.20;;
59922;SDS011;45778;51.142;3.732;2023-09-18T15:13:29;0.00;;;0.00;;